Castlewood, VA (24224)

5:40 PM EST on December 07, 2016 (GMT -0500)
Southwest Virginia, 4 miles SSE | | Change Station

Elev 2650 ft 37.02 °N, 82.32 °W | Updated 10 minutes ago

Clear
Clear
35.3 °F
Feels Like 35 °F
N
0.0
Wind Variable Wind from North
Gusts 0.0 mph

Today
High -- | Low -- °F
--% Chance of Precip.
Yesterday
High -- | Low -- °F
Precip. -- in
Pressure 30.07 in
Visibility 10.0 miles
Clouds Clear
Windchill 35 °F
Dew Point 24 °F
Humidity 64%
Rainfall in
Snow Depth Not available.
7:29 AM 5:12 PM
First Quarter, 56% visible
METAR KLNP 072235Z AUTO 00000KT 10SM CLR 03/M02 A3007 RMK AO2
Pressure 30.07 in
Visibility 10.0 miles
Clouds Clear
Windchill 35 °F
Dew Point 24 °F
Humidity 64%
Rainfall in
Snow Depth Not available.
7:29 AM 5:12 PM
First Quarter, 56% visible
METAR KLNP 072235Z AUTO 00000KT 10SM CLR 03/M02 A3007 RMK AO2

10-Day Weather Forecast

Almanac

Astronomy

Dec. 07, 2016 Rise Set
Actual Time
Civil Twilight
Nautical Twilight
Astronomical Twilight
Moon
Length of Visible Light
Length of Day
Tomorrow will be .
, % of the Moon is Illuminated

Today's Extremes

State Highs State Lows

Community

WunderPhotos

Upload Photos

1,956,214 photos uploaded!

WunderBlog® & News

Nearby

Air Quality

  Air Quality AQ Index Pollutant
Not available.

Snow Depth

Station Depth Elevation

Earthquake Activity

City Distance Mag. Time & Date
Minimum magnitude displayed is 2.5.

Coastal Water Temperatures

Place Temperature

Stations

Nearby Weather Stations

Station Location Temp. Windchill Dew Point Humidity Wind Precip. Elev Updated Type
                   

Watches & Warnings

There are currently no watches in effect.